sensor_id;sensor_type;location;lat;lon;timestamp;pressure;altitude;pressure_sealevel;temperature;humidity
71903;BME280;59778;50.310;18.780;2022-12-24T00:05:28;97764.38;;;5.54;100.00
71903;BME280;59778;50.310;18.780;2022-12-24T00:20:50;97754.28;;;5.41;100.00
71903;BME280;59778;50.310;18.780;2022-12-24T00:36:11;97734.88;;;5.46;100.00
71903;BME280;59778;50.310;18.780;2022-12-24T00:51:34;97741.06;;;5.61;100.00
71903;BME280;59778;50.310;18.780;2022-12-24T01:06:55;97744.47;;;5.84;100.00
71903;BME280;59778;50.310;18.780;2022-12-24T01:22:17;97758.06;;;5.76;100.00
71903;BME280;59778;50.310;18.780;2022-12-24T01:37:41;97732.63;;;5.64;100.00
71903;BME280;59778;50.310;18.780;2022-12-24T01:53:03;97707.75;;;5.83;100.00
71903;BME280;59778;50.310;18.780;2022-12-24T02:08:26;97725.41;;;6.00;100.00
71903;BME280;59778;50.310;18.780;2022-12-24T02:39:56;97719.84;;;6.08;100.00
71903;BME280;59778;50.310;18.780;2022-12-24T03:11:11;97754.25;;;6.06;100.00
71903;BME280;59778;50.310;18.780;2022-12-24T03:26:33;97766.56;;;5.94;100.00
71903;BME280;59778;50.310;18.780;2022-12-24T03:41:54;97773.44;;;5.82;100.00
71903;BME280;59778;50.310;18.780;2022-12-24T03:57:16;97785.69;;;5.85;100.00
71903;BME280;59778;50.310;18.780;2022-12-24T04:12:37;97774.44;;;5.81;100.00
71903;BME280;59778;50.310;18.780;2022-12-24T04:27:58;97788.97;;;5.80;100.00
71903;BME280;59778;50.310;18.780;2022-12-24T04:43:19;97791.00;;;5.78;100.00
71903;BME280;59778;50.310;18.780;2022-12-24T04:58:41;97793.75;;;5.85;100.00
71903;BME280;59778;50.310;18.780;2022-12-24T05:14:03;97809.59;;;5.88;100.00
71903;BME280;59778;50.310;18.780;2022-12-24T05:29:24;97804.75;;;5.98;100.00
71903;BME280;59778;50.310;18.780;2022-12-24T05:44:46;97816.53;;;6.11;100.00
71903;BME280;59778;50.310;18.780;2022-12-24T06:00:09;97835.72;;;6.23;100.00
71903;BME280;59778;50.310;18.780;2022-12-24T06:15:31;97838.94;;;6.33;100.00
71903;BME280;59778;50.310;18.780;2022-12-24T06:30:52;97861.72;;;6.52;100.00
71903;BME280;59778;50.310;18.780;2022-12-24T06:46:14;97876.13;;;6.59;100.00
71903;BME280;59778;50.310;18.780;2022-12-24T07:01:35;97889.13;;;6.70;100.00
71903;BME280;59778;50.310;18.780;2022-12-24T07:16:57;97914.94;;;6.79;100.00
71903;BME280;59778;50.310;18.780;2022-12-24T07:32:18;97918.28;;;6.81;100.00
71903;BME280;59778;50.310;18.780;2022-12-24T07:47:40;97928.56;;;6.92;100.00
71903;BME280;59778;50.310;18.780;2022-12-24T08:03:02;97953.81;;;7.06;100.00
71903;BME280;59778;50.310;18.780;2022-12-24T08:18:23;97955.22;;;7.23;100.00
71903;BME280;59778;50.310;18.780;2022-12-24T08:33:45;97974.28;;;7.43;100.00
71903;BME280;59778;50.310;18.780;2022-12-24T08:49:06;97990.38;;;7.79;100.00
71903;BME280;59778;50.310;18.780;2022-12-24T09:04:28;98018.91;;;8.09;100.00
71903;BME280;59778;50.310;18.780;2022-12-24T09:19:49;98027.22;;;8.14;99.83
71903;BME280;59778;50.310;18.780;2022-12-24T09:35:11;98040.81;;;8.48;97.75
71903;BME280;59778;50.310;18.780;2022-12-24T10:36:57;98130.03;;;9.04;95.91
71903;BME280;59778;50.310;18.780;2022-12-24T10:52:27;98143.78;;;8.75;100.00
71903;BME280;59778;50.310;18.780;2022-12-24T11:08:02;98160.59;;;8.64;100.00
71903;BME280;59778;50.310;18.780;2022-12-24T11:23:24;98183.09;;;8.64;100.00
71903;BME280;59778;50.310;18.780;2022-12-24T11:38:52;98202.66;;;8.66;100.00
71903;BME280;59778;50.310;18.780;2022-12-24T11:54:18;98226.84;;;8.95;99.22
71903;BME280;59778;50.310;18.780;2022-12-24T12:10:10;98254.53;;;8.97;97.77
71903;BME280;59778;50.310;18.780;2022-12-24T12:25:54;98282.34;;;8.85;97.89
71903;BME280;59778;50.310;18.780;2022-12-24T12:57:23;98335.94;;;8.89;96.71
71903;BME280;59778;50.310;18.780;2022-12-24T13:12:58;98365.13;;;8.94;96.82
71903;BME280;59778;50.310;18.780;2022-12-24T13:59:32;98467.31;;;8.85;93.13
71903;BME280;59778;50.310;18.780;2022-12-24T14:14:55;98480.97;;;8.77;93.19
71903;BME280;59778;50.310;18.780;2022-12-24T14:30:21;98497.16;;;8.71;92.92
71903;BME280;59778;50.310;18.780;2022-12-24T15:01:29;98557.38;;;8.58;93.00
71903;BME280;59778;50.310;18.780;2022-12-24T15:32:17;98602.56;;;8.43;92.81
71903;BME280;59778;50.310;18.780;2022-12-24T15:47:45;98616.91;;;8.29;93.50
71903;BME280;59778;50.310;18.780;2022-12-24T16:03:19;98632.91;;;8.16;93.64
71903;BME280;59778;50.310;18.780;2022-12-24T16:18:55;98642.91;;;7.92;95.62
71903;BME280;59778;50.310;18.780;2022-12-24T16:34:19;98665.38;;;7.70;96.17
71903;BME280;59778;50.310;18.780;2022-12-24T16:49:43;98679.38;;;7.74;93.69
71903;BME280;59778;50.310;18.780;2022-12-24T17:05:05;98709.88;;;7.82;93.04
71903;BME280;59778;50.310;18.780;2022-12-24T17:20:26;98707.66;;;7.63;94.45
71903;BME280;59778;50.310;18.780;2022-12-24T17:35:48;98728.41;;;7.32;93.59
71903;BME280;59778;50.310;18.780;2022-12-24T17:51:14;98730.75;;;7.35;92.77
71903;BME280;59778;50.310;18.780;2022-12-24T18:06:38;98757.47;;;7.30;93.06
71903;BME280;59778;50.310;18.780;2022-12-24T18:22:01;98770.50;;;7.26;93.08
71903;BME280;59778;50.310;18.780;2022-12-24T18:37:22;98780.94;;;7.29;93.95
71903;BME280;59778;50.310;18.780;2022-12-24T18:52:43;98817.28;;;7.19;95.31
71903;BME280;59778;50.310;18.780;2022-12-24T19:08:05;98832.16;;;7.06;98.00
71903;BME280;59778;50.310;18.780;2022-12-24T19:23:26;98843.81;;;6.99;98.79
71903;BME280;59778;50.310;18.780;2022-12-24T19:38:47;98843.28;;;7.03;98.70
71903;BME280;59778;50.310;18.780;2022-12-24T19:54:09;98863.53;;;6.99;97.83
71903;BME280;59778;50.310;18.780;2022-12-24T20:09:32;98877.06;;;6.83;97.50
71903;BME280;59778;50.310;18.780;2022-12-24T20:24:53;98878.91;;;6.58;97.34
71903;BME280;59778;50.310;18.780;2022-12-24T20:40:15;98892.22;;;6.44;97.86
71903;BME280;59778;50.310;18.780;2022-12-24T20:55:36;98901.81;;;6.54;96.87
71903;BME280;59778;50.310;18.780;2022-12-24T21:10:57;98913.63;;;6.53;96.61
71903;BME280;59778;50.310;18.780;2022-12-24T21:26:39;98945.28;;;6.35;97.50
71903;BME280;59778;50.310;18.780;2022-12-24T21:42:00;98945.56;;;6.16;99.12
71903;BME280;59778;50.310;18.780;2022-12-24T21:57:22;98968.50;;;6.20;100.00
71903;BME280;59778;50.310;18.780;2022-12-24T22:13:01;98977.63;;;6.27;100.00
71903;BME280;59778;50.310;18.780;2022-12-24T22:28:27;98979.53;;;6.43;100.00
71903;BME280;59778;50.310;18.780;2022-12-24T22:43:49;98983.59;;;6.47;100.00
71903;BME280;59778;50.310;18.780;2022-12-24T22:59:13;98992.19;;;6.50;100.00
71903;BME280;59778;50.310;18.780;2022-12-24T23:14:34;98995.59;;;6.60;100.00
71903;BME280;59778;50.310;18.780;2022-12-24T23:30:15;98998.75;;;6.48;100.00
71903;BME280;59778;50.310;18.780;2022-12-24T23:45:36;99013.88;;;6.33;100.00
